Time;durP1;ratioP1;P1;durP2;ratioP2;P2;SDS_P1;SDS_P2;PMS_P1;PMS_P2;Temp;Humidity;BMP_temperature;BMP_pressure;BME280_temperature;BME280_humidity;BME280_pressure;Samples;Min_cycle;Max_cycle;Signal;HPM_P1;HPM_P2
2023/08/30 00:06:12;;;;;;;41.60;25.10;;;;;;;21.68;100.00;99219.05;668800;1262;139583;-76
2023/08/30 00:21:16;;;;;;;40.00;25.10;;;;;;;21.73;100.00;99234.81;668826;1260;139481;-76
2023/08/30 00:36:20;;;;;;;38.50;24.40;;;;;;;21.61;100.00;99235.50;668808;1262;139691;-75
2023/08/30 00:51:23;;;;;;;44.00;27.40;;;;;;;21.44;100.00;99214.61;668734;1262;139948;-76
2023/08/30 01:06:27;;;;;;;45.50;26.50;;;;;;;21.39;100.00;99209.34;668840;1260;140091;-74
2023/08/30 01:21:53;;;;;;;42.80;22.50;;;;;;;21.30;100.00;99204.06;668485;1264;139777;-76
2023/08/30 01:36:58;;;;;;;45.00;25.80;;;;;;;21.23;100.00;99236.92;668495;1262;140167;-76
2023/08/30 01:52:03;;;;;;;49.70;25.00;;;;;;;21.17;100.00;99247.69;668856;1258;140858;-76
2023/08/30 02:07:18;;;;;;;53.70;25.10;;;;;;;21.11;100.00;99238.23;668284;1262;140235;-75
2023/08/30 02:22:22;;;;;;;51.60;26.30;;;;;;;21.13;100.00;99220.84;668791;1262;139333;-75
2023/08/30 02:37:25;;;;;;;49.80;25.20;;;;;;;21.29;100.00;99212.95;668736;1262;139978;-75
2023/08/30 02:52:28;;;;;;;43.80;24.30;;;;;;;21.18;100.00;99192.41;668695;1273;139642;-75
2023/08/30 03:07:34;;;;;;;65.00;29.90;;;;;;;21.18;100.00;99197.92;668256;1262;139525;-74
2023/08/30 03:22:38;;;;;;;48.60;24.00;;;;;;;21.09;100.00;99192.97;668793;1263;140263;-75
2023/08/30 03:37:43;;;;;;;47.70;23.50;;;;;;;21.10;100.00;99187.06;669544;1262;139743;-75
2023/08/30 03:52:46;;;;;;;46.10;24.40;;;;;;;21.05;100.00;99178.73;670296;1265;139532;-75
2023/08/30 04:07:50;;;;;;;31.40;16.60;;;;;;;21.02;100.00;99182.46;669435;1265;140299;-77
2023/08/30 04:22:58;;;;;;;30.40;14.10;;;;;;;21.00;100.00;99182.41;669746;1263;139921;-76
2023/08/30 04:38:03;;;;;;;34.80;14.10;;;;;;;20.85;100.00;99185.58;669548;1265;141443;-77
2023/08/30 04:53:07;;;;;;;31.90;16.30;;;;;;;20.84;100.00;99194.02;669491;1262;308977;-75
2023/08/30 05:08:11;;;;;;;29.80;14.40;;;;;;;20.79;100.00;99209.40;669907;1260;139435;-75
2023/08/30 05:23:17;;;;;;;27.50;13.70;;;;;;;20.61;100.00;99220.82;670275;1273;140178;-75
2023/08/30 05:38:21;;;;;;;25.90;13.50;;;;;;;20.70;100.00;99231.98;670491;1272;139513;-77
2023/08/30 05:53:37;;;;;;;28.60;14.40;;;;;;;20.69;100.00;99243.20;669445;1265;140513;-80
2023/08/30 06:08:42;;;;;;;23.70;12.50;;;;;;;20.81;100.00;99246.52;670139;1273;139537;-77
2023/08/30 06:23:46;;;;;;;20.70;11.50;;;;;;;21.01;100.00;99257.34;673032;1263;140890;-76
2023/08/30 06:38:49;;;;;;;17.50;11.30;;;;;;;20.94;100.00;99260.79;672802;1262;140089;-76
2023/08/30 06:53:55;;;;;;;21.20;12.10;;;;;;;20.95;100.00;99244.70;670709;1263;140166;-76
2023/08/30 07:08:58;;;;;;;21.90;11.20;;;;;;;21.22;100.00;99240.52;668682;1273;139063;-76
2023/08/30 07:24:03;;;;;;;18.50;11.70;;;;;;;21.52;100.00;99245.14;668586;1266;140058;-76
2023/08/30 07:39:07;;;;;;;20.90;11.20;;;;;;;21.73;100.00;99268.48;668828;1263;141775;-76
2023/08/30 07:54:10;;;;;;;15.30;9.90;;;;;;;22.05;100.00;99263.55;668068;1261;139784;-76
2023/08/30 08:09:15;;;;;;;16.60;9.20;;;;;;;22.26;100.00;99274.58;668188;1263;139463;-76
2023/08/30 08:24:19;;;;;;;13.30;8.30;;;;;;;21.98;100.00;99287.06;667739;1264;139978;-76
2023/08/30 08:39:22;;;;;;;9.50;6.80;;;;;;;22.23;100.00;99286.36;667997;1273;139417;-76
2023/08/30 08:54:27;;;;;;;11.50;7.80;;;;;;;22.57;100.00;99301.04;673534;1261;139546;-77
2023/08/30 09:09:30;;;;;;;9.70;6.30;;;;;;;22.06;100.00;99308.90;668371;1264;140426;-77
2023/08/30 09:24:39;;;;;;;15.00;8.80;;;;;;;21.92;100.00;99314.59;667308;1270;139851;-75
2023/08/30 09:39:48;;;;;;;;;;;;;;;21.83;100.00;99309.15;667581;1261;140172;-75
2023/08/30 09:54:52;;;;;;;14.90;8.30;;;;;;;22.11;100.00;99305.64;667446;1261;125803;-75
2023/08/30 10:09:57;;;;;;;14.30;8.40;;;;;;;22.18;100.00;99304.89;667646;1265;140560;-74
2023/08/30 10:25:19;;;;;;;12.90;7.00;;;;;;;22.13;100.00;99308.02;667342;1261;139963;-74
2023/08/30 10:40:22;;;;;;;8.10;4.50;;;;;;;22.07;100.00;99303.80;668065;1262;139131;-74
2023/08/30 10:55:26;;;;;;;9.20;6.00;;;;;;;22.96;100.00;99284.23;667483;1259;139588;-74
2023/08/30 11:10:31;;;;;;;12.30;6.40;;;;;;;23.46;100.00;99280.23;668031;1263;139636;-74
2023/08/30 11:25:35;;;;;;;11.70;6.80;;;;;;;23.21;100.00;99289.61;667954;1260;140167;-75
2023/08/30 11:40:39;;;;;;;9.10;6.30;;;;;;;22.94;100.00;99283.63;668234;1264;140070;-74
2023/08/30 11:55:42;;;;;;;15.70;8.00;;;;;;;22.79;100.00;99274.23;667907;1273;139445;-76
2023/08/30 12:10:47;;;;;;;12.30;7.40;;;;;;;22.95;100.00;99268.61;668373;1260;139350;-74
2023/08/30 12:26:07;;;;;;;9.70;7.50;;;;;;;23.13;100.00;99264.71;669411;1263;142181;-75
2023/08/30 12:41:11;;;;;;;12.70;7.40;;;;;;;23.31;100.00;99258.91;670894;1262;140485;-76
2023/08/30 12:56:15;;;;;;;17.00;7.30;;;;;;;23.15;100.00;99256.40;669303;1260;139276;-75
2023/08/30 13:11:18;;;;;;;14.30;7.40;;;;;;;22.96;100.00;99257.52;667783;1262;139162;-75
2023/08/30 13:26:22;;;;;;;7.90;6.40;;;;;;;23.12;100.00;99253.20;669299;1259;139526;-74
2023/08/30 13:41:26;;;;;;;13.20;7.10;;;;;;;23.40;100.00;99250.19;668628;1262;139311;-75
2023/08/30 13:56:31;;;;;;;7.80;5.80;;;;;;;23.61;100.00;99254.73;670094;1275;139576;-75
2023/08/30 14:11:37;;;;;;;21.90;8.70;;;;;;;23.37;100.00;99251.02;669499;1263;139819;-75
2023/08/30 14:26:42;;;;;;;12.90;7.90;;;;;;;23.11;100.00;99247.98;671499;1263;138940;-76
2023/08/30 14:41:46;;;;;;;12.30;7.30;;;;;;;23.20;100.00;99248.98;672181;1259;141099;-73
2023/08/30 14:56:49;;;;;;;14.50;9.10;;;;;;;23.32;100.00;99245.66;669429;1259;139948;-75
2023/08/30 15:11:53;;;;;;;10.00;5.30;;;;;;;22.95;100.00;99229.00;667863;1262;139330;-75
2023/08/30 15:26:56;;;;;;;5.50;4.50;;;;;;;22.86;100.00;99238.90;667940;1262;139413;-74
2023/08/30 15:42:00;;;;;;;8.30;6.50;;;;;;;22.91;100.00;99237.45;667783;1262;139494;-75
2023/08/30 15:57:04;;;;;;;8.90;6.90;;;;;;;22.98;100.00;99251.23;668251;1275;140421;-73
2023/08/30 16:12:08;;;;;;;10.00;6.30;;;;;;;22.77;100.00;99271.62;668180;1260;140257;-75
2023/08/30 16:27:12;;;;;;;11.00;7.80;;;;;;;22.73;100.00;99274.43;668281;1263;140043;-75
2023/08/30 16:42:15;;;;;;;15.00;8.60;;;;;;;22.13;100.00;99284.39;668327;1262;140293;-75
2023/08/30 16:57:19;;;;;;;19.30;10.50;;;;;;;22.21;100.00;99297.64;667889;1264;141465;-75
2023/08/30 17:12:23;;;;;;;17.90;10.70;;;;;;;22.03;100.00;99304.89;667885;1264;139437;-75
2023/08/30 17:27:27;;;;;;;16.00;10.50;;;;;;;22.13;100.00;99297.89;668047;1262;140182;-75
2023/08/30 17:42:31;;;;;;;15.90;11.80;;;;;;;22.13;100.00;99291.91;668165;1262;139876;-75
2023/08/30 17:57:35;;;;;;;17.10;11.00;;;;;;;22.03;100.00;99282.61;668195;1266;139678;-76
2023/08/30 18:12:39;;;;;;;19.10;13.50;;;;;;;21.90;100.00;99278.55;668104;1263;139975;-75
2023/08/30 18:27:44;;;;;;;15.40;11.10;;;;;;;21.80;100.00;99280.25;668334;1262;139763;-75
2023/08/30 18:42:47;;;;;;;13.30;9.90;;;;;;;21.63;100.00;99270.66;667996;1262;139510;-75
2023/08/30 18:57:52;;;;;;;12.60;8.30;;;;;;;21.60;100.00;99262.95;668119;1262;138976;-76
2023/08/30 19:12:56;;;;;;;14.40;9.60;;;;;;;21.55;100.00;99266.27;668001;1262;139555;-76
2023/08/30 19:28:00;;;;;;;14.20;10.10;;;;;;;21.59;100.00;99278.68;668221;1262;139442;-76
2023/08/30 19:43:05;;;;;;;13.20;9.70;;;;;;;21.36;100.00;99288.53;668096;1278;140096;-75
2023/08/30 19:58:08;;;;;;;18.30;9.90;;;;;;;21.43;100.00;99298.19;672893;1262;139271;-76
2023/08/30 20:13:12;;;;;;;10.10;7.30;;;;;;;21.57;100.00;99300.40;670233;1262;140161;-76
2023/08/30 20:28:17;;;;;;;7.00;3.60;;;;;;;21.27;100.00;99298.11;668063;1262;140397;-75
2023/08/30 20:43:24;;;;;;;5.10;3.60;;;;;;;21.29;100.00;99303.58;667419;1264;139843;-75
2023/08/30 20:58:31;;;;;;;6.10;5.30;;;;;;;21.33;100.00;99301.80;668096;1262;139444;-76
2023/08/30 21:13:34;;;;;;;6.70;4.50;;;;;;;21.08;100.00;99298.59;667815;1267;139244;-75
2023/08/30 21:28:38;;;;;;;6.50;3.80;;;;;;;20.89;100.00;99299.83;668233;1276;139240;-75
2023/08/30 21:43:41;;;;;;;6.70;4.70;;;;;;;20.96;100.00;99294.27;667844;1276;140463;-75
2023/08/30 21:58:46;;;;;;;9.00;6.00;;;;;;;21.02;100.00;99292.51;667939;1265;139398;-75
2023/08/30 22:13:50;;;;;;;11.10;7.30;;;;;;;20.90;100.00;99305.27;667637;1263;139685;-75
2023/08/30 22:28:55;;;;;;;13.30;8.60;;;;;;;20.81;100.00;99303.09;667890;1261;140060;-76
2023/08/30 22:43:58;;;;;;;12.60;7.50;;;;;;;20.66;100.00;99316.76;667824;1273;139775;-76
2023/08/30 22:59:02;;;;;;;11.40;8.20;;;;;;;20.45;100.00;99328.42;668086;1275;140114;-75
2023/08/30 23:14:06;;;;;;;11.40;6.50;;;;;;;20.42;100.00;99323.16;667501;1266;139931;-75
2023/08/30 23:29:10;;;;;;;12.30;6.80;;;;;;;20.36;100.00;99314.91;667809;1273;142769;-75
2023/08/30 23:44:13;;;;;;;12.60;7.50;;;;;;;20.29;100.00;99313.60;668449;1264;139497;-75
2023/08/30 23:59:16;;;;;;;14.00;8.70;;;;;;;20.38;100.00;99309.89;668285;1269;140556;-74
